Time;durP1;ratioP1;P1;durP2;ratioP2;P2;SDS_P1;SDS_P2;PMS_P1;PMS_P2;Temp;Humidity;BMP_temperature;BMP_pressure;BME280_temperature;BME280_humidity;BME280_pressure;Samples;Min_cycle;Max_cycle;Signal;HPM_P1;HPM_P2
2022/10/03 00:00:30;;;;;;;;;;;;;;;9.20;100.00;102382.25;5075202;28;20297;-52
2022/10/03 00:03:19;;;;;;;;;;;;;;;9.12;100.00;102389.53;5075116;28;19970;-58
2022/10/03 00:06:02;;;;;;;;;;;;;;;9.15;100.00;102397.34;5074092;28;19921;-54
2022/10/03 00:08:38;;;;;;;;;;;;;;;9.11;100.00;102403.59;5076406;28;19920;-59
2022/10/03 00:11:12;;;;;;;;;;;;;;;9.05;100.00;102401.16;5076865;28;19920;-58
2022/10/03 00:13:45;;;;;;;;;;;;;;;9.09;100.00;102413.28;5076377;28;19928;-52
2022/10/03 00:16:15;;;;;;;;;;;;;;;9.16;100.00;102411.31;5076685;28;20317;-52
2022/10/03 00:18:52;;;;;;;;;;;;;;;9.12;100.00;102418.41;5075149;28;19928;-52
2022/10/03 00:21:35;;;;;;;;;;;;;;;9.09;100.00;102408.03;5073901;28;20007;-51
2022/10/03 00:24:11;;;;;;;;;;;;;;;9.09;100.00;102415.91;5074339;28;20264;-52
2022/10/03 00:26:45;;;;;;;;;;;;;;;9.06;100.00;102418.63;5073888;28;20007;-52
2022/10/03 00:29:36;;;;;;;;;;;;;;;9.00;100.00;102418.84;5072739;28;19924;-52
2022/10/03 00:32:12;;;;;;;;;;;;;;;9.02;100.00;102417.03;5072487;28;20043;-59
2022/10/03 00:34:46;;;;;;;;;;;;;;;9.01;100.00;102418.78;5074491;28;19921;-59
2022/10/03 00:37:20;;;;;;;;;;;;;;;8.95;100.00;102429.50;5075537;28;19920;-59
2022/10/03 00:40:05;;;;;;;;;;;;;;;8.95;100.00;102426.88;5076245;28;19965;-59
2022/10/03 00:42:47;;;;;;;;;;;;;;;8.92;100.00;102425.19;5075326;28;19920;-59
2022/10/03 00:45:37;;;;;;;;;;;;;;;8.91;100.00;102420.00;5076253;28;19928;-59
2022/10/03 00:48:11;;;;;;;;;;;;;;;8.85;100.00;102421.06;5076577;28;20287;-58
2022/10/03 00:50:51;;;;;;;;;;;;;;;8.79;100.00;102424.75;5075410;28;19924;-59
2022/10/03 00:53:25;;;;;;;;;;;;;;;8.82;100.00;102431.69;5075537;28;19973;-59
2022/10/03 00:56:00;;;;;;;;;;;;;;;8.80;100.00;102436.94;5076035;28;19920;-59
2022/10/03 00:58:50;;;;;;;;;;;;;;;8.77;100.00;102441.44;5075622;28;19985;-53
2022/10/03 01:01:24;;;;;;;;;;;;;;;8.77;100.00;102439.69;5074081;28;19931;-59
2022/10/03 01:03:58;;;;;;;;;;;;;;;8.75;100.00;102438.00;5074782;28;19927;-53
2022/10/03 01:06:31;;;;;;;;;;;;;;;8.78;100.00;102444.03;5074808;28;19974;-53
2022/10/03 01:09:05;;;;;;;;;;;;;;;8.76;100.00;102444.97;5074932;28;20284;-52
2022/10/03 01:11:40;;;;;;;;;;;;;;;8.75;100.00;102440.63;5073372;28;19920;-51
2022/10/03 01:14:15;;;;;;;;;;;;;;;8.74;100.00;102445.03;5073566;28;19927;-53
2022/10/03 01:16:54;;;;;;;;;;;;;;;8.73;100.00;102440.69;5071156;28;19925;-52
2022/10/03 01:19:29;;;;;;;;;;;;;;;8.66;100.00;102444.41;5073082;28;19920;-53
2022/10/03 01:22:06;;;;;;;;;;;;;;;8.72;100.00;102451.22;5072823;28;19982;-53
2022/10/03 01:24:49;;;;;;;;;;;;;;;8.73;100.00;102450.31;5072967;28;19928;-53
2022/10/03 01:27:21;;;;;;;;;;;;;;;8.65;100.00;102455.81;5071278;28;19928;-53
2022/10/03 01:32:42;;;;;;;;;;;;;;;8.56;100.00;102456.97;5071037;28;19974;-50
2022/10/03 01:35:14;;;;;;;;;;;;;;;8.53;100.00;102461.44;5072987;28;19925;-52
2022/10/03 01:37:50;;;;;;;;;;;;;;;8.56;100.00;102466.56;5072795;28;20367;-53
2022/10/03 01:40:22;;;;;;;;;;;;;;;8.57;100.00;102465.69;5074534;28;19928;-53
2022/10/03 01:43:00;;;;;;;;;;;;;;;8.49;100.00;102463.28;5072215;28;19924;-53
2022/10/03 01:45:36;;;;;;;;;;;;;;;8.56;100.00;102467.47;5073800;28;19932;-53
2022/10/03 01:48:06;;;;;;;;;;;;;;;8.50;100.00;102462.38;5073054;28;19921;-53
2022/10/03 01:50:36;;;;;;;;;;;;;;;8.47;100.00;102462.47;5072514;28;19924;-53
2022/10/03 01:53:09;;;;;;;;;;;;;;;8.50;100.00;102458.91;5074111;28;19920;-48
2022/10/03 01:55:47;;;;;;;;;;;;;;;8.45;100.00;102459.03;5072632;28;20281;-51
2022/10/03 01:58:22;;;;;;;;;;;;;;;8.44;100.00;102467.78;5071949;28;19920;-52
2022/10/03 02:00:56;;;;;;;;;;;;;;;8.44;100.00;102459.94;5072301;28;19970;-52
2022/10/03 02:03:28;;;;;;;;;;;;;;;8.38;100.00;102462.72;5071719;28;20279;-57
2022/10/03 02:06:00;;;;;;;;;;;;;;;8.47;100.00;102465.09;5072562;28;19966;-52
2022/10/03 02:08:35;;;;;;;;;;;;;;;8.44;100.00;102468.66;5071804;28;20361;-53
2022/10/03 02:11:07;;;;;;;;;;;;;;;8.44;100.00;102465.19;5072859;28;19993;-58
2022/10/03 02:13:41;;;;;;;;;;;;;;;8.45;100.00;102467.78;5073149;28;20006;-58
2022/10/03 02:16:17;;;;;;;;;;;;;;;8.36;100.00;102473.25;5074464;28;20331;-58
2022/10/03 02:18:47;;;;;;;;;;;;;;;8.38;100.00;102473.22;5073984;28;19920;-58
2022/10/03 02:21:19;;;;;;;;;;;;;;;8.37;100.00;102467.13;5073558;28;19924;-58
2022/10/03 02:23:48;;;;;;;;;;;;;;;8.31;100.00;102469.91;5073599;28;20259;-58
2022/10/03 02:26:34;;;;;;;;;;;;;;;8.30;100.00;102478.66;5072986;28;19967;-58
2022/10/03 02:29:10;;;;;;;;;;;;;;;8.28;100.00;102476.09;5073909;28;19967;-53
2022/10/03 02:31:55;;;;;;;;;;;;;;;8.25;100.00;102473.56;5071184;28;19924;-52
2022/10/03 02:34:32;;;;;;;;;;;;;;;8.21;100.00;102476.34;5071422;28;19924;-53
2022/10/03 02:37:11;;;;;;;;;;;;;;;8.18;100.00;102477.28;5072059;28;19927;-52
2022/10/03 02:39:55;;;;;;;;;;;;;;;8.29;100.00;102476.97;5071814;28;19924;-52
2022/10/03 02:42:31;;;;;;;;;;;;;;;8.19;100.00;102478.97;5070952;28;19920;-49
2022/10/03 02:45:15;;;;;;;;;;;;;;;8.27;100.00;102481.38;5071777;28;20023;-52
2022/10/03 02:48:07;;;;;;;;;;;;;;;8.25;100.00;102477.97;5071116;28;19920;-52
2022/10/03 02:51:13;;;;;;;;;;;;;;;8.23;100.00;102480.59;5073267;28;19962;-52
2022/10/03 02:54:09;;;;;;;;;;;;;;;8.24;100.00;102479.72;5052370;28;20057;-53
2022/10/03 02:56:56;;;;;;;;;;;;;;;8.23;100.00;102487.63;5069939;28;19960;-53
2022/10/03 02:59:37;;;;;;;;;;;;;;;8.20;100.00;102485.09;5071040;28;19931;-51
2022/10/03 03:02:13;;;;;;;;;;;;;;;8.18;100.00;102485.16;5070016;28;20003;-54
2022/10/03 03:05:14;;;;;;;;;;;;;;;8.19;100.00;102480.75;5072442;28;19920;-58
2022/10/03 03:08:01;;;;;;;;;;;;;;;8.20;100.00;102475.47;5031630;28;19921;-58
2022/10/03 03:10:37;;;;;;;;;;;;;;;8.15;100.00;102479.97;5031323;28;20382;-58
2022/10/03 03:13:26;;;;;;;;;;;;;;;8.16;100.00;102480.84;5050318;28;19924;-57
2022/10/03 03:16:09;;;;;;;;;;;;;;;8.10;100.00;102485.38;5073531;28;19920;-57
2022/10/03 03:18:39;;;;;;;;;;;;;;;8.09;100.00;102485.41;5064704;28;19927;-58
2022/10/03 03:21:23;;;;;;;;;;;;;;;8.10;100.00;102489.75;5072447;28;19924;-58
2022/10/03 03:24:09;;;;;;;;;;;;;;;8.12;100.00;102490.56;5071801;28;19970;-58
2022/10/03 03:26:52;;;;;;;;;;;;;;;8.01;100.00;102487.38;5073156;28;20026;-58
2022/10/03 03:29:25;;;;;;;;;;;;;;;8.00;100.00;102490.91;5072878;28;20341;-57
2022/10/03 03:31:59;;;;;;;;;;;;;;;7.99;100.00;102490.06;5070719;28;19921;-59
2022/10/03 03:34:31;;;;;;;;;;;;;;;7.94;100.00;102490.16;5071883;28;20275;-59
2022/10/03 03:37:03;;;;;;;;;;;;;;;7.94;100.00;102487.53;5071888;28;19950;-54
2022/10/03 03:39:42;;;;;;;;;;;;;;;7.98;100.00;102487.50;5070602;28;20426;-55
2022/10/03 03:42:19;;;;;;;;;;;;;;;7.91;100.00;102487.63;5071963;28;19928;-57
2022/10/03 03:44:54;;;;;;;;;;;;;;;7.93;100.00;102496.34;5073640;28;19951;-58
2022/10/03 03:47:37;;;;;;;;;;;;;;;7.97;100.00;102498.84;5073185;28;19920;-58
2022/10/03 03:50:14;;;;;;;;;;;;;;;8.04;100.00;102497.78;5073224;28;19921;-57
2022/10/03 03:52:49;;;;;;;;;;;;;;;7.93;100.00;102492.84;5073075;28;19920;-57
2022/10/03 03:55:27;;;;;;;;;;;;;;;7.97;100.00;102497.09;5073066;28;20394;-58
2022/10/03 03:58:02;;;;;;;;;;;;;;;7.90;100.00;102496.41;5072961;28;19920;-57
2022/10/03 04:00:35;;;;;;;;;;;;;;;7.87;100.00;102483.38;5071599;28;20007;-57
2022/10/03 04:03:18;;;;;;;;;;;;;;;7.81;100.00;102501.88;5071198;28;19920;-58
2022/10/03 04:06:02;;;;;;;;;;;;;;;7.82;100.00;102500.97;5072056;28;19927;-58
2022/10/03 04:08:37;;;;;;;;;;;;;;;7.89;100.00;102505.16;5072463;28;19924;-53
2022/10/03 04:11:17;;;;;;;;;;;;;;;7.84;100.00;102500.94;5072268;28;19986;-58
2022/10/03 04:13:55;;;;;;;;;;;;;;;7.85;100.00;102492.19;5070684;28;19924;-48
2022/10/03 04:19:24;;;;;;;;;;;;;;;7.79;100.00;102498.47;5071467;28;19963;-52
2022/10/03 04:21:58;;;;;;;;;;;;;;;7.82;100.00;102500.13;5071103;28;19927;-51
2022/10/03 04:24:35;;;;;;;;;;;;;;;7.90;100.00;102499.00;5072478;28;19921;-57
2022/10/03 04:27:11;;;;;;;;;;;;;;;7.78;100.00;102499.34;5071329;28;19989;-58
2022/10/03 04:29:46;;;;;;;;;;;;;;;7.80;100.00;102500.19;5070239;28;20635;-52
2022/10/03 04:32:21;;;;;;;;;;;;;;;7.78;100.00;102507.22;5066987;28;19929;-53
2022/10/03 04:34:59;;;;;;;;;;;;;;;7.81;100.00;102508.88;5070557;28;19925;-52
2022/10/03 04:37:30;;;;;;;;;;;;;;;7.71;100.00;102503.03;5069892;28;19952;-54
2022/10/03 04:40:17;;;;;;;;;;;;;;;7.78;100.00;102501.97;5070467;28;19927;-54
2022/10/03 04:42:50;;;;;;;;;;;;;;;7.75;100.00;102502.91;5072097;28;19924;-53
2022/10/03 04:45:28;;;;;;;;;;;;;;;7.75;100.00;102500.28;5076646;28;19920;-58
2022/10/03 04:47:59;;;;;;;;;;;;;;;7.68;100.00;102498.75;5074315;28;19924;-59
2022/10/03 04:50:33;;;;;;;;;;;;;;;7.72;100.00;102505.63;5074784;28;19924;-58
2022/10/03 04:53:11;;;;;;;;;;;;;;;7.70;100.00;102519.66;5075278;28;19921;-58
2022/10/03 04:55:42;;;;;;;;;;;;;;;7.71;100.00;102518.75;5074584;28;19920;-58
2022/10/03 04:58:17;;;;;;;;;;;;;;;7.72;100.00;102518.72;5075335;28;20304;-58
2022/10/03 05:00:54;;;;;;;;;;;;;;;7.70;100.00;102514.41;5075894;28;20326;-58
2022/10/03 05:03:28;;;;;;;;;;;;;;;7.69;100.00;102523.16;5075517;28;19926;-59
2022/10/03 05:05:58;;;;;;;;;;;;;;;7.68;100.00;102524.94;5074385;28;20031;-58
2022/10/03 05:08:33;;;;;;;;;;;;;;;7.65;100.00;102527.63;5075232;28;19924;-58
2022/10/03 05:11:04;;;;;;;;;;;;;;;7.67;100.00;102532.84;5075598;28;19920;-58
2022/10/03 05:13:39;;;;;;;;;;;;;;;7.61;100.00;102531.25;5075089;28;19927;-58
2022/10/03 05:16:16;;;;;;;;;;;;;;;7.59;100.00;102533.91;5073668;28;19924;-58
2022/10/03 05:18:47;;;;;;;;;;;;;;;7.52;100.00;102534.94;5073818;28;19959;-49
2022/10/03 05:21:22;;;;;;;;;;;;;;;7.51;100.00;102538.47;5074699;28;19924;-50
2022/10/03 05:24:02;;;;;;;;;;;;;;;7.50;100.00;102536.75;5075159;28;19920;-58
2022/10/03 05:26:35;;;;;;;;;;;;;;;7.45;100.00;102536.84;5075024;28;19921;-54
2022/10/03 05:29:16;;;;;;;;;;;;;;;7.46;100.00;102540.34;5075160;28;19920;-52
2022/10/03 05:31:50;;;;;;;;;;;;;;;7.47;100.00;102546.41;5074845;28;19924;-53
2022/10/03 05:34:23;;;;;;;;;;;;;;;7.44;100.00;102544.75;5075250;28;20015;-53
2022/10/03 05:37:03;;;;;;;;;;;;;;;7.44;100.00;102550.84;5075359;28;19969;-51
2022/10/03 05:39:36;;;;;;;;;;;;;;;7.45;100.00;102556.94;5073377;28;20440;-53
2022/10/03 05:42:14;;;;;;;;;;;;;;;7.44;100.00;102550.84;5072554;28;20425;-50
2022/10/03 05:44:56;;;;;;;;;;;;;;;7.41;100.00;102547.44;5073259;28;20450;-49
2022/10/03 05:47:47;;;;;;;;;;;;;;;7.39;100.00;102546.59;5072437;28;19927;-52
2022/10/03 05:50:35;;;;;;;;;;;;;;;7.38;100.00;102548.38;5072394;28;19924;-52
2022/10/03 05:53:12;;;;;;;;;;;;;;;7.40;100.00;102549.22;5071378;28;19927;-51
2022/10/03 05:55:49;;;;;;;;;;;;;;;7.40;100.00;102553.56;5072602;28;19990;-51
2022/10/03 05:58:46;;;;;;;;;;;;;;;7.39;100.00;102551.84;5072009;28;19927;-48
2022/10/03 06:01:27;;;;;;;;;;;;;;;7.42;100.00;102551.78;5029100;28;20007;-48
2022/10/03 06:04:14;;;;;;;;;;;;;;;7.45;100.00;102555.16;5062132;28;19932;-51
2022/10/03 06:06:50;;;;;;;;;;;;;;;7.43;100.00;102559.59;5073299;28;19925;-49
2022/10/03 06:09:30;;;;;;;;;;;;;;;7.40;100.00;102561.41;5074502;28;20551;-51
2022/10/03 06:12:01;;;;;;;;;;;;;;;7.37;100.00;102564.13;5073550;28;19931;-51
2022/10/03 06:14:33;;;;;;;;;;;;;;;7.43;100.00;102563.94;5071651;28;19921;-53
2022/10/03 06:17:15;;;;;;;;;;;;;;;7.48;100.00;102556.84;5070657;28;20015;-52
2022/10/03 06:19:49;;;;;;;;;;;;;;;7.49;100.00;102555.97;5073840;28;19960;-51
2022/10/03 06:22:41;;;;;;;;;;;;;;;7.54;100.00;102566.31;5074041;28;19960;-51
2022/10/03 06:25:21;;;;;;;;;;;;;;;7.52;100.00;102566.34;5074266;28;20367;-48
2022/10/03 06:28:12;;;;;;;;;;;;;;;7.58;100.00;102570.56;5073813;28;19927;-48
2022/10/03 06:30:52;;;;;;;;;;;;;;;7.53;100.00;102578.56;5073981;28;20298;-51
2022/10/03 06:33:38;;;;;;;;;;;;;;;7.55;100.00;102574.16;5071944;28;19964;-50
2022/10/03 06:36:31;;;;;;;;;;;;;;;7.57;100.00;102577.56;5071871;28;20367;-49
2022/10/03 06:39:17;;;;;;;;;;;;;;;7.69;100.00;102570.31;5017155;28;19927;-48
2022/10/03 06:42:16;;;;;;;;;;;;;;;7.70;100.00;102583.38;5071218;28;19932;-52
2022/10/03 06:44:57;;;;;;;;;;;;;;;7.74;100.00;102578.91;5073658;28;20426;-50
2022/10/03 06:47:33;;;;;;;;;;;;;;;7.78;100.00;102578.81;5073113;28;19931;-48
2022/10/03 06:50:28;;;;;;;;;;;;;;;7.87;100.00;102575.06;5073196;28;20382;-48
2022/10/03 06:53:11;;;;;;;;;;;;;;;8.01;100.00;102579.94;5071850;28;19920;-57
2022/10/03 06:56:00;;;;;;;;;;;;;;;8.08;100.00;102578.03;5070904;28;19978;-57
2022/10/03 06:58:42;;;;;;;;;;;;;;;8.18;100.00;102584.75;5073205;28;19931;-57
2022/10/03 07:01:24;;;;;;;;;;;;;;;8.36;100.00;102585.16;5073546;28;19920;-57
2022/10/03 07:04:05;;;;;;;;;;;;;;;8.48;100.00;102582.22;5072108;28;20325;-57
2022/10/03 07:06:44;;;;;;;;;;;;;;;8.60;100.00;102581.84;5072165;28;20011;-57
2022/10/03 07:09:31;;;;;;;;;;;;;;;8.84;100.00;102579.41;5071975;28;20330;-59
2022/10/03 07:12:15;;;;;;;;;;;;;;;9.01;100.00;102586.72;5070307;28;19978;-53
2022/10/03 07:15:01;;;;;;;;;;;;;;;9.25;100.00;102582.50;5049661;28;19966;-51
2022/10/03 07:17:40;;;;;;;;;;;;;;;9.50;100.00;102586.09;5073128;28;19966;-51
2022/10/03 07:20:26;;;;;;;;;;;;;;;9.74;100.00;102587.06;5073483;28;20374;-50
2022/10/03 07:23:12;;;;;;;;;;;;;;;9.92;100.00;102591.66;5072350;28;19951;-51
2022/10/03 07:25:49;;;;;;;;;;;;;;;10.11;100.00;102596.28;5071998;28;19943;-57
2022/10/03 07:28:38;;;;;;;;;;;;;;;10.46;100.00;102591.56;5073045;28;19957;-51
2022/10/03 07:31:14;;;;;;;;;;;;;;;10.70;100.00;102594.19;5069865;28;19928;-51
2022/10/03 07:33:58;;;;;;;;;;;;;;;10.99;100.00;102586.03;5070315;28;19927;-50
2022/10/03 07:39:32;;;;;;;;;;;;;;;11.20;100.00;102596.63;5070590;28;19956;-58
2022/10/03 07:42:20;;;;;;;;;;;;;;;11.52;100.00;102599.75;5071345;28;19931;-58
2022/10/03 07:45:03;;;;;;;;;;;;;;;11.79;100.00;102603.00;5071834;28;19948;-58
2022/10/03 07:47:48;;;;;;;;;;;;;;;11.75;100.00;102609.34;5068453;28;19929;-57
2022/10/03 07:50:31;;;;;;;;;;;;;;;12.22;100.00;102617.94;5069581;28;19982;-58
2022/10/03 07:53:15;;;;;;;;;;;;;;;12.49;100.00;102610.56;5072551;28;19920;-55
2022/10/03 07:55:50;;;;;;;;;;;;;;;12.60;100.00;102620.66;5070766;28;20355;-55
2022/10/03 07:58:30;;;;;;;;;;;;;;;12.90;100.00;102618.34;5070233;28;19924;-50
2022/10/03 08:01:07;;;;;;;;;;;;;;;12.94;100.00;102613.78;5070547;28;20291;-52
2022/10/03 08:03:53;;;;;;;;;;;;;;;12.96;100.00;102618.06;5070360;28;19943;-58
2022/10/03 08:06:25;;;;;;;;;;;;;;;13.38;100.00;102623.19;5071571;28;19921;-59
2022/10/03 08:09:08;;;;;;;;;;;;;;;13.45;100.00;102630.72;5071872;28;19920;-59
2022/10/03 08:11:50;;;;;;;;;;;;;;;13.61;100.00;102628.19;5072415;28;20341;-58
2022/10/03 08:14:19;;;;;;;;;;;;;;;13.91;100.00;102639.97;5050375;28;20007;-58
2022/10/03 08:17:02;;;;;;;;;;;;;;;13.96;100.00;102633.50;5072039;28;19924;-60
2022/10/03 08:19:43;;;;;;;;;;;;;;;14.06;100.00;102633.88;5075640;28;19960;-59
2022/10/03 08:22:15;;;;;;;;;;;;;;;14.35;100.00;102631.50;5075225;28;20335;-60
2022/10/03 08:25:06;;;;;;;;;;;;;;;14.60;100.00;102631.06;5075934;28;19921;-55
2022/10/03 08:27:45;;;;;;;;;;;;;;;14.72;100.00;102634.00;5058400;28;20390;-54
2022/10/03 08:30:19;;;;;;;;;;;;;;;14.73;100.00;102625.97;5073504;28;19927;-55
2022/10/03 08:32:56;;;;;;;;;;;;;;;14.72;100.00;102618.09;5065769;28;19924;-55
2022/10/03 08:35:30;;;;;;;;;;;;;;;14.81;100.00;102623.75;5073999;28;19955;-54
2022/10/03 08:38:07;;;;;;;;;;;;;;;14.79;100.00;102630.06;5074904;28;20417;-54
2022/10/03 08:40:55;;;;;;;;;;;;;;;14.95;100.00;102636.22;5072947;28;19928;-55
2022/10/03 08:43:35;;;;;;;;;;;;;;;15.09;100.00;102635.44;5074583;28;19920;-55
2022/10/03 08:46:15;;;;;;;;;;;;;;;15.12;100.00;102634.44;5070607;28;19924;-55
2022/10/03 08:48:50;;;;;;;;;;;;;;;15.41;100.00;102637.25;5072708;28;19921;-60
2022/10/03 08:51:33;;;;;;;;;;;;;;;15.35;100.00;102638.44;5073972;28;19924;-59
2022/10/03 08:54:13;;;;;;;;;;;;;;;15.27;100.00;102641.53;5073754;28;19928;-61
2022/10/03 08:57:00;;;;;;;;;;;;;;;15.25;100.00;102632.78;5073601;28;19943;-55
2022/10/03 08:59:55;;;;;;;;;;;;;;;15.41;100.00;102631.94;5075048;28;20318;-56
2022/10/03 09:02:34;;;;;;;;;;;;;;;15.59;100.00;102630.88;5070245;28;19920;-56
2022/10/03 09:05:16;;;;;;;;;;;;;;;15.74;100.00;102626.47;5073100;28;19921;-56
2022/10/03 09:07:57;;;;;;;;;;;;;;;15.82;100.00;102634.84;5073356;28;20456;-56
2022/10/03 09:10:49;;;;;;;;;;;;;;;15.89;100.00;102624.72;5071880;28;19974;-56
2022/10/03 09:13:34;;;;;;;;;;;;;;;16.07;100.00;102624.56;5068107;28;19927;-62
2022/10/03 09:16:21;;;;;;;;;;;;;;;16.26;100.00;102622.50;5068497;28;19920;-56
2022/10/03 09:18:58;;;;;;;;;;;;;;;16.42;100.00;102619.75;5072726;28;19920;-57
2022/10/03 09:21:41;;;;;;;;;;;;;;;16.48;100.00;102622.03;5072034;28;20386;-61
2022/10/03 09:24:24;;;;;;;;;;;;;;;16.71;100.00;102603.78;5072081;28;19974;-61
2022/10/03 09:27:23;;;;;;;;;;;;;;;17.00;100.00;102615.25;5073724;28;19927;-56
2022/10/03 09:30:16;;;;;;;;;;;;;;;17.15;100.00;102612.53;5032756;28;19971;-56
2022/10/03 09:33:02;;;;;;;;;;;;;;;17.21;100.00;102615.66;5069694;28;20359;-62
2022/10/03 09:35:49;;;;;;;;;;;;;;;17.24;100.00;102609.28;5070937;28;19962;-62
2022/10/03 09:38:35;;;;;;;;;;;;;;;17.29;100.00;102604.53;5074941;28;20144;-56
2022/10/03 09:41:21;;;;;;;;;;;;;;;17.50;100.00;102606.72;5073530;28;19920;-62
2022/10/03 09:44:07;;;;;;;;;;;;;;;17.73;100.00;102608.66;5072958;28;19920;-57
2022/10/03 09:50:18;;;;;;;;;;;;;;;18.27;97.52;102595.28;5008075;28;19967;-62
2022/10/03 09:52:55;;;;;;;;;;;;;;;18.27;96.14;102592.63;5067836;28;20433;-62
2022/10/03 09:55:30;;;;;;;;;;;;;;;18.75;97.43;102582.94;5070841;28;20366;-62
2022/10/03 09:58:11;;;;;;;;;;;;;;;18.83;93.20;102587.72;5072902;28;20403;-62
2022/10/03 10:01:02;;;;;;;;;;;;;;;18.98;94.04;102579.56;5071106;28;19928;-57
2022/10/03 10:04:08;;;;;;;;;;;;;;;19.17;93.65;102592.41;5070303;28;19974;-57
2022/10/03 10:06:52;;;;;;;;;;;;;;;19.22;90.21;102592.91;5074184;28;20382;-56
2022/10/03 10:09:38;;;;;;;;;;;;;;;19.28;90.35;102587.13;5074007;28;19920;-60
2022/10/03 10:12:13;;;;;;;;;;;;;;;19.47;90.19;102580.41;5073724;28;20023;-62
2022/10/03 10:14:52;;;;;;;;;;;;;;;19.52;87.07;102586.25;5072059;28;20348;-61
2022/10/03 10:17:38;;;;;;;;;;;;;;;19.61;89.37;102582.88;5068692;28;20454;-56
2022/10/03 10:20:11;;;;;;;;;;;;;;;19.77;88.00;102582.56;5073891;28;19956;-56
2022/10/03 10:23:01;;;;;;;;;;;;;;;19.89;86.97;102581.63;5072796;28;19934;-57
2022/10/03 10:25:37;;;;;;;;;;;;;;;19.88;85.53;102576.41;5069913;28;19924;-57
2022/10/03 10:28:13;;;;;;;;;;;;;;;20.34;85.38;102575.47;5072507;28;19920;-63
2022/10/03 10:30:59;;;;;;;;;;;;;;;20.77;83.53;102576.53;5073885;28;20334;-63
2022/10/03 10:33:45;;;;;;;;;;;;;;;20.22;81.16;102574.63;5072720;28;19932;-63
2022/10/03 10:36:28;;;;;;;;;;;;;;;20.24;84.98;102574.50;5052926;28;19920;-63
2022/10/03 10:39:26;;;;;;;;;;;;;;;20.35;85.39;102577.16;5072252;28;19920;-62
2022/10/03 10:42:13;;;;;;;;;;;;;;;20.10;84.38;102581.75;5073803;28;19920;-57
2022/10/03 10:45:10;;;;;;;;;;;;;;;20.03;82.42;102583.22;5070699;28;20379;-57
2022/10/03 10:47:55;;;;;;;;;;;;;;;20.36;82.04;102584.19;5068504;28;19925;-58
2022/10/03 10:50:44;;;;;;;;;;;;;;;20.58;78.94;102579.81;5070161;28;19924;-63
2022/10/03 10:53:27;;;;;;;;;;;;;;;20.79;76.42;102579.91;5065956;28;19920;-63
2022/10/03 10:56:28;;;;;;;;;;;;;;;21.20;74.81;102577.47;5069778;28;20341;-63
2022/10/03 10:59:15;;;;;;;;;;;;;;;21.29;73.19;102582.03;5030210;28;20410;-63
2022/10/03 11:02:01;;;;;;;;;;;;;;;21.06;72.92;102581.28;5030985;28;19925;-57
2022/10/03 11:04:47;;;;;;;;;;;;;;;20.96;72.60;102581.22;5058768;28;19931;-64
2022/10/03 11:07:51;;;;;;;;;;;;;;;20.75;72.95;102581.13;5068256;28;20042;-57
2022/10/03 11:10:35;;;;;;;;;;;;;;;20.49;73.84;102577.88;5068126;28;19924;-63
2022/10/03 11:13:30;;;;;;;;;;;;;;;20.30;78.42;102579.34;5069717;28;20306;-62
2022/10/03 11:16:33;;;;;;;;;;;;;;;20.38;74.23;102582.25;5050222;28;19977;-62
2022/10/03 11:19:23;;;;;;;;;;;;;;;20.47;73.75;102571.81;5071869;28;20086;-63
2022/10/03 11:22:06;;;;;;;;;;;;;;;20.37;74.05;102580.56;5071792;28;19924;-63
2022/10/03 11:24:52;;;;;;;;;;;;;;;20.41;77.56;102576.66;5038308;28;20007;-62
2022/10/03 11:27:53;;;;;;;;;;;;;;;20.33;74.23;102573.75;5069573;28;19921;-63
2022/10/03 11:30:29;;;;;;;;;;;;;;;20.30;74.88;102579.34;5072638;28;20379;-62
2022/10/03 11:33:21;;;;;;;;;;;;;;;20.35;71.04;102570.97;5072439;28;19927;-63
2022/10/03 11:36:09;;;;;;;;;;;;;;;20.27;74.24;102571.56;5069709;28;20387;-63
2022/10/03 11:38:42;;;;;;;;;;;;;;;20.03;70.24;102571.69;5069566;28;20408;-62
2022/10/03 11:41:17;;;;;;;;;;;;;;;20.00;71.96;102570.13;5070378;28;19965;-63
2022/10/03 11:44:06;;;;;;;;;;;;;;;19.96;71.25;102568.66;5069674;28;19928;-58
2022/10/03 11:46:43;;;;;;;;;;;;;;;19.71;69.97;102572.34;5068794;28;19927;-58
2022/10/03 11:49:16;;;;;;;;;;;;;;;19.96;69.73;102565.13;5068683;28;19924;-64
2022/10/03 11:51:49;;;;;;;;;;;;;;;20.51;66.24;102570.59;5073091;28;19999;-57
2022/10/03 11:54:24;;;;;;;;;;;;;;;20.59;67.84;102563.63;5075433;28;20399;-63
2022/10/03 11:57:01;;;;;;;;;;;;;;;20.62;66.51;102557.19;5075393;28;20007;-58
2022/10/03 11:59:47;;;;;;;;;;;;;;;20.79;66.76;102563.84;5075097;28;19925;-63
2022/10/03 12:02:23;;;;;;;;;;;;;;;21.04;66.68;102556.50;5069781;28;19947;-64
2022/10/03 12:04:55;;;;;;;;;;;;;;;20.83;66.36;102559.97;5072507;28;20475;-57
2022/10/03 12:10:32;;;;;;;;;;;;;;;21.01;67.14;102552.25;5074536;28;19931;-56
2022/10/03 12:13:04;;;;;;;;;;;;;;;21.09;63.68;102559.63;5071718;28;20448;-57
2022/10/03 12:15:34;;;;;;;;;;;;;;;20.74;63.34;102561.56;5073558;28;19920;-63
2022/10/03 12:18:07;;;;;;;;;;;;;;;20.58;63.92;102561.09;5075000;28;19928;-63
2022/10/03 12:20:44;;;;;;;;;;;;;;;20.44;63.84;102560.38;5071940;28;20345;-63
2022/10/03 12:23:22;;;;;;;;;;;;;;;20.14;66.53;102557.47;5071785;28;19921;-63
2022/10/03 12:25:52;;;;;;;;;;;;;;;20.27;67.65;102558.22;5074833;28;19932;-63
2022/10/03 12:28:23;;;;;;;;;;;;;;;20.24;68.04;102559.28;5074940;28;20272;-63
2022/10/03 12:30:54;;;;;;;;;;;;;;;20.25;67.91;102557.50;5074374;28;19924;-63
2022/10/03 12:33:31;;;;;;;;;;;;;;;19.96;68.87;102544.63;5074433;28;20275;-62
2022/10/03 12:36:05;;;;;;;;;;;;;;;19.99;68.58;102544.38;5074494;28;19971;-62
2022/10/03 12:38:40;;;;;;;;;;;;;;;20.10;66.37;102541.72;5074437;28;19992;-62
2022/10/03 12:41:15;;;;;;;;;;;;;;;19.94;65.34;102546.56;5073811;28;20029;-62
2022/10/03 12:44:04;;;;;;;;;;;;;;;20.18;66.27;102546.44;5070994;28;19970;-63
2022/10/03 12:46:39;;;;;;;;;;;;;;;20.14;64.75;102546.78;5070722;28;19981;-63
2022/10/03 12:49:11;;;;;;;;;;;;;;;20.19;67.68;102541.94;5072124;28;19924;-62
2022/10/03 12:51:47;;;;;;;;;;;;;;;19.82;65.16;102539.50;5033754;28;1161737;-62
2022/10/03 12:54:22;;;;;;;;;;;;;;;20.00;66.08;102539.88;5075687;28;20328;-62
2022/10/03 12:57:03;;;;;;;;;;;;;;;19.84;67.48;102540.25;5074132;28;20010;-62
2022/10/03 12:59:37;;;;;;;;;;;;;;;19.67;65.38;102534.34;5072272;28;19921;-63
2022/10/03 13:02:23;;;;;;;;;;;;;;;19.77;65.48;102539.84;5070225;28;20003;-61
2022/10/03 13:05:02;;;;;;;;;;;;;;;19.82;65.63;102532.34;5074363;28;19970;-62
2022/10/03 13:07:37;;;;;;;;;;;;;;;19.80;67.27;102538.78;5070619;28;19924;-63
2022/10/03 13:10:14;;;;;;;;;;;;;;;19.93;66.96;102532.38;5072256;28;19974;-62
2022/10/03 13:12:45;;;;;;;;;;;;;;;20.12;67.91;102533.56;5072160;28;20046;-62
2022/10/03 13:15:39;;;;;;;;;;;;;;;20.30;63.90;102539.28;5071983;28;20045;-63
2022/10/03 13:18:14;;;;;;;;;;;;;;;20.42;65.17;102529.41;5069866;28;19924;-62
2022/10/03 13:20:49;;;;;;;;;;;;;;;20.51;65.56;102534.03;5073478;28;19947;-62
2022/10/03 13:23:23;;;;;;;;;;;;;;;20.46;60.99;102530.88;5075439;28;19938;-62
2022/10/03 13:25:57;;;;;;;;;;;;;;;20.35;62.40;102528.22;5074990;28;19955;-62
2022/10/03 13:28:30;;;;;;;;;;;;;;;20.40;62.68;102526.03;5073856;28;19924;-62
2022/10/03 13:31:02;;;;;;;;;;;;;;;20.49;62.07;102529.78;5075161;28;19920;-62
2022/10/03 13:33:37;;;;;;;;;;;;;;;20.64;64.88;102531.19;5074780;28;19927;-63
2022/10/03 13:36:13;;;;;;;;;;;;;;;20.64;64.77;102528.50;5070296;28;19966;-62
2022/10/03 13:38:50;;;;;;;;;;;;;;;20.79;64.52;102529.09;5071438;28;20390;-62
2022/10/03 13:41:29;;;;;;;;;;;;;;;20.81;63.94;102526.34;5071472;28;19920;-62
2022/10/03 13:44:00;;;;;;;;;;;;;;;20.92;65.08;102529.78;5071931;28;19974;-63
2022/10/03 13:46:32;;;;;;;;;;;;;;;20.89;62.03;102521.19;5074834;28;19969;-62
2022/10/03 13:49:09;;;;;;;;;;;;;;;20.94;62.59;102524.31;5074822;28;19921;-57
2022/10/03 13:51:44;;;;;;;;;;;;;;;20.90;62.34;102518.41;5074555;28;19939;-57
2022/10/03 13:54:19;;;;;;;;;;;;;;;20.88;65.11;102516.81;5070902;28;20082;-58